createdAt,value
2023-02-27T00:00:37.235Z,5.95
2023-02-27T00:02:09.243Z,5.96
2023-02-27T00:03:41.096Z,5.97
2023-02-27T00:05:13.076Z,5.96
2023-02-27T00:06:45.055Z,5.95
2023-02-27T00:08:16.902Z,5.96
2023-02-27T00:09:48.760Z,5.97
2023-02-27T00:11:20.630Z,5.95
2023-02-27T00:12:52.619Z,5.96
2023-02-27T00:14:24.448Z,5.97
2023-02-27T00:15:56.778Z,5.94
2023-02-27T00:17:30.016Z,5.94
2023-02-27T00:19:05.107Z,5.95
2023-02-27T00:22:10.609Z,5.93
2023-02-27T00:23:42.447Z,5.91
2023-02-27T00:25:14.657Z,5.90
2023-02-27T00:26:46.443Z,5.84
2023-02-27T00:28:18.301Z,5.86
2023-02-27T00:29:50.168Z,5.86
2023-02-27T00:31:22.004Z,5.83
2023-02-27T00:32:54.355Z,5.83
2023-02-27T00:34:26.302Z,5.84
2023-02-27T00:35:58.707Z,5.88
2023-02-27T00:37:30.630Z,5.92
2023-02-27T00:39:02.481Z,5.98
2023-02-27T00:40:36.318Z,6.00
2023-02-27T00:42:08.255Z,6.00
2023-02-27T00:43:40.134Z,5.98
2023-02-27T00:45:12.078Z,6.04
2023-02-27T00:46:44.331Z,6.09
2023-02-27T00:48:16.412Z,6.10
2023-02-27T00:49:48.406Z,6.10
2023-02-27T00:51:20.641Z,6.11
2023-02-27T00:52:52.459Z,6.11
2023-02-27T00:54:24.393Z,6.11
2023-02-27T00:55:56.251Z,6.19
2023-02-27T00:57:28.299Z,6.24
2023-02-27T00:59:00.137Z,6.30
2023-02-27T01:00:32.062Z,6.31
2023-02-27T01:02:03.915Z,6.33
2023-02-27T01:03:35.847Z,6.32
2023-02-27T01:05:07.838Z,6.25
2023-02-27T01:06:39.809Z,6.23
2023-02-27T01:08:11.638Z,6.23
2023-02-27T01:09:43.593Z,6.21
2023-02-27T01:11:15.460Z,6.21
2023-02-27T01:12:47.321Z,6.20
2023-02-27T01:14:19.262Z,6.19
2023-02-27T01:15:51.136Z,6.18
2023-02-27T01:17:23.028Z,6.15
2023-02-27T01:18:55.117Z,6.12
2023-02-27T01:20:27.009Z,5.99
2023-02-27T01:21:58.940Z,5.96
2023-02-27T01:23:30.892Z,5.96
2023-02-27T01:25:02.797Z,6.01
2023-02-27T01:26:34.788Z,6.04
2023-02-27T01:28:06.639Z,6.07
2023-02-27T01:29:38.461Z,6.04
2023-02-27T01:31:10.292Z,6.02
2023-02-27T01:32:42.342Z,6.01
2023-02-27T01:34:14.157Z,6.01
2023-02-27T01:35:45.978Z,6.03
2023-02-27T01:37:18.245Z,6.05
2023-02-27T01:38:50.150Z,6.09
2023-02-27T01:41:55.586Z,6.20
2023-02-27T01:43:27.630Z,6.22
2023-02-27T01:45:11.678Z,6.23
2023-02-27T01:46:43.996Z,6.25
2023-02-27T01:48:17.215Z,6.25
2023-02-27T01:49:49.064Z,6.23
2023-02-27T01:51:21.464Z,6.26
2023-02-27T01:52:54.565Z,6.23
2023-02-27T01:54:26.467Z,6.21
2023-02-27T01:56:04.769Z,6.24
2023-02-27T01:57:36.592Z,6.24
2023-02-27T01:59:08.665Z,6.28
2023-02-27T02:00:40.771Z,6.33
2023-02-27T02:02:15.364Z,6.35
2023-02-27T02:04:01.604Z,6.35
2023-02-27T02:05:33.425Z,6.35
2023-02-27T02:07:07.512Z,6.34
2023-02-27T02:08:42.487Z,6.30
2023-02-27T02:11:47.024Z,6.22
2023-02-27T02:13:19.405Z,6.22
2023-02-27T02:14:51.571Z,6.21
2023-02-27T02:16:35.668Z,6.21
2023-02-27T02:18:17.030Z,6.22
2023-02-27T02:20:00.700Z,6.27
2023-02-27T02:21:32.507Z,6.28
2023-02-27T02:23:04.299Z,6.27
2023-02-27T02:24:39.182Z,6.28
2023-02-27T02:26:14.241Z,6.26
2023-02-27T02:27:51.970Z,6.27
2023-02-27T02:29:42.834Z,6.29
2023-02-27T02:31:15.441Z,6.28
2023-02-27T02:33:06.094Z,6.24
2023-02-27T02:34:37.960Z,6.25
2023-02-27T02:36:24.924Z,6.25
2023-02-27T02:38:15.584Z,6.21
2023-02-27T02:40:13.827Z,6.14
2023-02-27T02:42:18.293Z,6.09
2023-02-27T02:43:52.884Z,6.07
2023-02-27T02:47:02.470Z,6.03
2023-02-27T02:48:52.986Z,6.00
2023-02-27T02:50:30.926Z,5.98
2023-02-27T02:52:11.173Z,5.97
2023-02-27T02:53:45.993Z,5.96
2023-02-27T02:55:25.443Z,5.95
2023-02-27T02:57:04.621Z,5.92
2023-02-27T02:58:38.536Z,5.91
2023-02-27T03:00:12.497Z,5.88
2023-02-27T03:01:46.233Z,5.83
2023-02-27T03:03:23.110Z,5.82
2023-02-27T03:04:59.106Z,5.83
2023-02-27T03:06:34.394Z,5.86
2023-02-27T03:08:11.418Z,5.86
2023-02-27T03:09:45.040Z,5.84
2023-02-27T03:11:16.819Z,5.83
2023-02-27T03:12:53.215Z,5.82
2023-02-27T03:14:27.864Z,5.88
2023-02-27T03:16:02.655Z,5.93
2023-02-27T03:17:39.140Z,5.98
2023-02-27T03:19:16.448Z,6.00
2023-02-27T03:20:53.058Z,6.02
2023-02-27T03:22:30.713Z,6.02
2023-02-27T03:24:03.681Z,6.08
2023-02-27T03:25:35.537Z,6.11
2023-02-27T03:27:07.959Z,6.08
2023-02-27T03:28:40.962Z,6.09
2023-02-27T03:30:29.980Z,6.10
2023-02-27T03:32:07.932Z,6.18
2023-02-27T03:33:40.871Z,6.20
2023-02-27T03:35:13.108Z,6.15
2023-02-27T03:36:49.574Z,6.18
2023-02-27T03:38:23.422Z,6.20
2023-02-27T03:39:57.194Z,6.12
2023-02-27T03:41:33.444Z,6.03
2023-02-27T03:43:23.288Z,6.08
2023-02-27T03:46:46.483Z,6.09
2023-02-27T03:48:18.433Z,6.09
2023-02-27T03:49:51.524Z,6.09
2023-02-27T03:51:24.388Z,6.06
2023-02-27T03:52:56.860Z,6.03
2023-02-27T03:54:30.830Z,6.00
2023-02-27T03:56:03.265Z,5.99
2023-02-27T03:57:38.713Z,5.96
2023-02-27T03:59:10.576Z,5.94
2023-02-27T04:00:42.539Z,5.91
2023-02-27T04:02:14.470Z,5.91
2023-02-27T04:04:06.672Z,5.93
2023-02-27T04:05:38.636Z,5.96
2023-02-27T04:07:33.586Z,5.98
2023-02-27T04:09:11.478Z,5.98
2023-02-27T04:11:09.433Z,6.01
2023-02-27T04:13:10.844Z,6.03
2023-02-27T04:14:49.646Z,6.04
2023-02-27T04:16:30.386Z,6.02
2023-02-27T04:18:02.527Z,6.02
2023-02-27T04:19:37.332Z,6.02
2023-02-27T04:21:24.484Z,6.02
2023-02-27T04:22:58.919Z,6.03
2023-02-27T04:24:30.836Z,6.02
2023-02-27T04:26:02.643Z,6.03
2023-02-27T04:27:34.465Z,6.05
2023-02-27T04:29:06.416Z,6.05
2023-02-27T04:30:46.117Z,6.04
2023-02-27T04:32:22.018Z,6.02
2023-02-27T04:33:53.957Z,6.02
2023-02-27T04:35:34.926Z,6.01
2023-02-27T04:37:17.975Z,6.02
2023-02-27T04:38:52.170Z,5.96
2023-02-27T04:40:33.642Z,5.94
2023-02-27T04:42:10.795Z,5.92
2023-02-27T04:43:42.605Z,5.96
2023-02-27T04:45:15.556Z,5.97
2023-02-27T04:46:47.687Z,5.95
2023-02-27T04:49:54.879Z,5.92
2023-02-27T04:51:28.504Z,5.88
2023-02-27T04:53:02.897Z,5.90
2023-02-27T04:54:49.852Z,5.88
2023-02-27T04:56:26.296Z,5.78
2023-02-27T04:58:00.156Z,5.55
2023-02-27T04:59:34.050Z,5.48
2023-02-27T05:01:08.260Z,5.45
2023-02-27T05:02:42.389Z,5.38
2023-02-27T05:04:15.692Z,5.34
2023-02-27T05:05:47.588Z,5.35
2023-02-27T05:07:20.283Z,5.31
2023-02-27T05:08:56.389Z,5.31
2023-02-27T05:10:28.234Z,5.33
2023-02-27T05:12:00.136Z,5.25
2023-02-27T05:13:39.501Z,5.25
2023-02-27T05:15:13.041Z,5.23
2023-02-27T05:17:14.094Z,5.16
2023-02-27T05:18:46.286Z,5.15
2023-02-27T05:20:18.367Z,5.20
2023-02-27T05:22:03.056Z,5.18
2023-02-27T05:23:40.333Z,5.17
2023-02-27T05:25:21.048Z,5.26
2023-02-27T05:27:03.921Z,5.36
2023-02-27T05:28:37.432Z,5.42
2023-02-27T05:30:32.550Z,5.44
2023-02-27T05:32:20.777Z,5.46
2023-02-27T05:33:55.778Z,5.50
2023-02-27T05:35:32.525Z,5.54
2023-02-27T05:37:24.758Z,5.58
2023-02-27T05:38:57.788Z,5.66
2023-02-27T05:40:37.855Z,5.71
2023-02-27T05:42:15.028Z,5.76
2023-02-27T05:43:48.155Z,5.80
2023-02-27T05:45:21.302Z,5.85
2023-02-27T05:46:54.373Z,5.90
2023-02-27T05:48:27.861Z,5.93
2023-02-27T05:50:05.729Z,5.95
2023-02-27T05:51:45.512Z,5.95
2023-02-27T05:53:17.950Z,6.00
2023-02-27T05:55:08.769Z,6.01
2023-02-27T05:56:40.894Z,6.04
2023-02-27T05:58:18.624Z,6.03
2023-02-27T05:59:52.613Z,6.03
2023-02-27T06:01:24.948Z,5.99
2023-02-27T06:02:56.852Z,6.04
2023-02-27T06:04:29.299Z,6.03
2023-02-27T06:06:02.092Z,6.05
2023-02-27T06:07:34.325Z,6.06
2023-02-27T06:09:06.180Z,6.08
2023-02-27T06:10:38.296Z,6.11
2023-02-27T06:12:10.162Z,6.08
2023-02-27T06:13:43.558Z,6.15
2023-02-27T06:15:15.672Z,6.19
2023-02-27T06:16:47.561Z,6.19
2023-02-27T06:18:19.701Z,6.16
2023-02-27T06:19:51.642Z,6.15
2023-02-27T06:21:28.396Z,6.16
2023-02-27T06:23:00.442Z,6.17
2023-02-27T06:24:32.468Z,6.19
2023-02-27T06:26:06.996Z,6.18
2023-02-27T06:27:38.937Z,6.17
2023-02-27T06:29:10.816Z,6.13
2023-02-27T06:30:43.920Z,6.18
2023-02-27T06:32:19.364Z,6.19
2023-02-27T06:33:51.165Z,6.19
2023-02-27T06:35:23.107Z,6.17
2023-02-27T06:36:55.047Z,6.22
2023-02-27T06:38:26.955Z,6.26
2023-02-27T06:39:59.195Z,6.26
2023-02-27T06:41:31.111Z,6.31
2023-02-27T06:43:02.903Z,6.32
2023-02-27T06:44:34.750Z,6.33
2023-02-27T06:46:06.670Z,6.39
2023-02-27T06:47:38.900Z,6.41
2023-02-27T06:49:10.788Z,6.45
2023-02-27T06:50:43.664Z,6.40
2023-02-27T06:52:15.613Z,6.40
2023-02-27T06:53:47.796Z,6.41
2023-02-27T06:55:21.254Z,6.43
2023-02-27T06:56:53.160Z,6.47
2023-02-27T06:58:25.569Z,6.52
2023-02-27T06:59:57.467Z,6.58
2023-02-27T07:01:29.417Z,6.61
2023-02-27T07:03:04.923Z,6.63
2023-02-27T07:04:36.757Z,6.67
2023-02-27T07:06:08.723Z,6.72
2023-02-27T07:07:40.727Z,6.76
2023-02-27T07:09:12.694Z,6.81
2023-02-27T07:10:47.374Z,6.77
2023-02-27T07:12:19.364Z,6.77
2023-02-27T07:13:51.294Z,6.78
2023-02-27T07:15:23.212Z,6.73
2023-02-27T07:16:55.190Z,6.78
2023-02-27T07:18:27.186Z,6.80
2023-02-27T07:19:59.061Z,6.84
2023-02-27T07:21:31.063Z,6.91
2023-02-27T07:23:03.109Z,6.96
2023-02-27T07:24:35.178Z,6.98
2023-02-27T07:26:07.105Z,6.99
2023-02-27T07:27:39.001Z,6.99
2023-02-27T07:29:10.924Z,7.04
2023-02-27T07:30:42.900Z,7.09
2023-02-27T07:32:14.887Z,7.09
2023-02-27T07:33:46.817Z,6.97
2023-02-27T07:35:19.875Z,7.01
2023-02-27T07:36:54.723Z,7.03
2023-02-27T07:38:26.832Z,7.06
2023-02-27T07:39:58.736Z,7.07
2023-02-27T07:41:31.267Z,7.08
2023-02-27T07:43:03.643Z,7.13
2023-02-27T07:44:35.571Z,7.17
2023-02-27T07:46:07.439Z,7.21
2023-02-27T07:47:39.313Z,7.24
2023-02-27T07:49:11.350Z,7.21
2023-02-27T07:50:43.296Z,7.28
2023-02-27T07:52:15.174Z,7.26
2023-02-27T07:53:47.175Z,7.35
2023-02-27T07:55:19.208Z,7.35
2023-02-27T07:56:51.062Z,7.37
2023-02-27T07:58:23.004Z,7.41
2023-02-27T07:59:55.006Z,7.42
2023-02-27T08:01:27.546Z,7.44
2023-02-27T08:03:00.748Z,7.47
2023-02-27T08:04:32.778Z,7.52
2023-02-27T08:06:04.867Z,7.59
2023-02-27T08:07:37.019Z,7.61
2023-02-27T08:09:09.050Z,7.65
2023-02-27T08:10:40.935Z,7.76
2023-02-27T09:05:50.739Z,8.41
2023-02-27T09:07:22.606Z,8.47
2023-02-27T09:08:54.480Z,8.50
2023-02-27T09:10:26.350Z,8.54
2023-02-27T09:11:58.297Z,8.59
2023-02-27T09:13:30.404Z,8.57
2023-02-27T09:15:02.258Z,8.55
2023-02-27T09:16:34.188Z,8.50
2023-02-27T09:18:07.465Z,8.55
2023-02-27T09:19:39.428Z,8.48
2023-02-27T09:21:11.338Z,8.51
2023-02-27T09:22:43.497Z,8.50
2023-02-27T09:24:20.341Z,8.59
2023-02-27T09:25:52.753Z,8.64
2023-02-27T09:27:24.752Z,8.67
2023-02-27T09:28:56.656Z,8.69
2023-02-27T09:30:28.666Z,8.72
2023-02-27T09:32:00.666Z,8.80
2023-02-27T09:33:33.021Z,8.86
2023-02-27T09:35:05.163Z,8.95
2023-02-27T09:36:37.055Z,9.02
2023-02-27T09:38:08.970Z,9.14
2023-02-27T09:39:40.837Z,9.20
2023-02-27T09:41:41.934Z,9.28
2023-02-27T09:43:17.728Z,9.40
2023-02-27T09:44:53.011Z,9.49
2023-02-27T09:46:25.963Z,9.51
2023-02-27T09:48:01.719Z,9.54
2023-02-27T09:51:08.910Z,9.58
2023-02-27T09:52:40.973Z,9.59
2023-02-27T09:54:12.907Z,9.59
2023-02-27T09:55:45.019Z,9.64
2023-02-27T09:57:19.250Z,9.58
2023-02-27T09:58:53.888Z,9.59
2023-02-27T10:00:44.622Z,9.55
2023-02-27T10:02:22.588Z,9.58
2023-02-27T10:04:10.129Z,9.52
2023-02-27T10:05:43.040Z,9.45
2023-02-27T10:07:30.291Z,9.32
2023-02-27T10:09:11.411Z,9.26
2023-02-27T10:10:46.106Z,9.13
2023-02-27T10:12:24.161Z,9.18
2023-02-27T10:14:19.456Z,9.24
2023-02-27T10:15:52.324Z,9.40
2023-02-27T10:17:24.907Z,9.36
2023-02-27T10:18:58.519Z,9.28
2023-02-27T10:20:34.509Z,9.34
2023-02-27T10:22:11.437Z,9.25
2023-02-27T10:23:46.358Z,9.23
2023-02-27T10:25:30.747Z,9.24
2023-02-27T10:27:06.210Z,9.31
2023-02-27T10:28:38.098Z,9.31
2023-02-27T10:30:29.475Z,9.04
2023-02-27T10:32:02.870Z,9.25
2023-02-27T10:33:38.134Z,9.37
2023-02-27T10:35:11.255Z,9.37
2023-02-27T10:36:44.188Z,9.49
2023-02-27T10:38:18.037Z,9.50
2023-02-27T10:39:57.342Z,9.49
2023-02-27T10:41:29.626Z,9.58
2023-02-27T10:43:01.873Z,9.60
2023-02-27T10:44:34.522Z,9.55
2023-02-27T10:46:16.647Z,9.64
2023-02-27T10:47:48.599Z,9.57
2023-02-27T10:49:21.535Z,9.48
2023-02-27T10:50:53.393Z,9.57
2023-02-27T10:52:25.248Z,9.59
2023-02-27T10:54:17.541Z,9.62
2023-02-27T10:55:58.674Z,9.64
2023-02-27T10:57:31.680Z,9.60
2023-02-27T10:59:07.110Z,9.59
2023-02-27T11:00:41.212Z,9.64
2023-02-27T11:02:16.237Z,9.58
2023-02-27T11:03:49.146Z,9.56
2023-02-27T11:05:26.066Z,9.63
2023-02-27T11:06:58.194Z,9.76
2023-02-27T11:08:30.828Z,9.68
2023-02-27T11:10:14.872Z,9.69
2023-02-27T11:11:46.811Z,9.71
2023-02-27T11:13:22.025Z,9.76
2023-02-27T11:14:55.014Z,9.80
2023-02-27T11:16:27.196Z,9.85
2023-02-27T11:18:17.456Z,9.86
2023-02-27T11:19:50.203Z,9.82
2023-02-27T11:21:27.742Z,9.90
2023-02-27T11:24:45.185Z,9.95
2023-02-27T11:26:18.476Z,10.00
2023-02-27T11:27:52.412Z,9.96
2023-02-27T11:29:24.326Z,10.00
2023-02-27T11:31:06.422Z,10.01
2023-02-27T11:32:41.074Z,10.03
2023-02-27T11:34:18.817Z,9.99
2023-02-27T11:35:51.483Z,9.99
2023-02-27T11:37:31.525Z,9.97
2023-02-27T11:39:03.551Z,10.01
2023-02-27T11:40:39.328Z,9.97
2023-02-27T11:42:17.459Z,9.88
2023-02-27T11:43:52.902Z,9.90
2023-02-27T11:46:09.321Z,9.98
2023-02-27T11:47:21.996Z,10.00
2023-02-27T11:48:56.708Z,10.03
2023-02-27T11:50:40.229Z,10.10
2023-02-27T11:52:17.517Z,10.11
2023-02-27T11:54:04.982Z,10.15
2023-02-27T11:55:36.909Z,10.18
2023-02-27T11:57:09.019Z,9.99
2023-02-27T11:58:45.875Z,10.02
2023-02-27T12:00:27.723Z,10.05
2023-02-27T12:02:18.425Z,10.07
2023-02-27T12:04:02.729Z,10.09
2023-02-27T12:05:47.714Z,10.15
2023-02-27T12:07:19.678Z,10.17
2023-02-27T12:08:54.664Z,10.16
2023-02-27T12:10:29.383Z,10.19
2023-02-27T12:12:02.220Z,10.14
2023-02-27T12:13:35.935Z,10.18
2023-02-27T12:15:15.749Z,10.21
2023-02-27T12:16:54.568Z,10.27
2023-02-27T12:18:31.076Z,10.31
2023-02-27T12:20:08.079Z,10.43
2023-02-27T12:21:40.947Z,10.51
2023-02-27T12:24:47.890Z,10.68
2023-02-27T12:26:22.346Z,10.70
2023-02-27T12:28:00.424Z,10.80
2023-02-27T12:29:33.870Z,10.90
2023-02-27T12:31:14.953Z,10.87
2023-02-27T12:33:10.190Z,10.94
2023-02-27T12:34:43.643Z,11.01
2023-02-27T12:36:15.754Z,11.01
2023-02-27T12:37:47.578Z,11.03
2023-02-27T12:39:23.572Z,11.01
2023-02-27T12:41:14.023Z,10.98
2023-02-27T12:42:58.091Z,10.86
2023-02-27T12:44:42.243Z,10.84
2023-02-27T12:46:14.361Z,10.78
2023-02-27T12:48:18.597Z,10.59
2023-02-27T12:50:13.471Z,10.72
2023-02-27T12:53:24.242Z,10.65
2023-02-27T12:55:02.262Z,10.68
2023-02-27T12:56:52.558Z,10.72
2023-02-27T12:58:27.293Z,10.66
2023-02-27T13:00:11.280Z,10.56
2023-02-27T13:01:48.823Z,10.41
2023-02-27T13:03:40.342Z,10.39
2023-02-27T13:05:12.395Z,10.42
2023-02-27T13:06:52.990Z,10.43
2023-02-27T13:08:45.165Z,10.41
2023-02-27T13:10:23.454Z,10.32
2023-02-27T13:12:01.232Z,10.33
2023-02-27T13:13:42.561Z,10.22
2023-02-27T13:15:22.603Z,10.15
2023-02-27T13:16:58.217Z,10.12
2023-02-27T13:18:39.097Z,10.12
2023-02-27T13:20:20.078Z,10.17
2023-02-27T13:21:53.560Z,10.02
2023-02-27T13:23:43.646Z,9.95
2023-02-27T13:25:15.951Z,9.95
2023-02-27T13:26:49.814Z,9.90
2023-02-27T13:28:23.998Z,9.82
2023-02-27T13:30:01.648Z,9.84
2023-02-27T13:31:37.360Z,9.80
2023-02-27T13:33:32.397Z,9.72
2023-02-27T13:35:07.870Z,9.83
2023-02-27T13:36:47.365Z,9.84
2023-02-27T13:38:42.344Z,9.84
2023-02-27T13:40:30.847Z,9.80
2023-02-27T13:42:02.773Z,9.69
2023-02-27T13:43:51.458Z,9.72
2023-02-27T13:45:42.246Z,9.77
2023-02-27T13:47:29.269Z,9.86
2023-02-27T13:49:04.070Z,9.92
2023-02-27T13:50:36.028Z,9.86
2023-02-27T13:52:07.948Z,9.84
2023-02-27T13:53:40.237Z,9.77
2023-02-27T13:55:32.140Z,9.71
2023-02-27T13:57:04.037Z,9.68
2023-02-27T13:58:35.938Z,9.64
2023-02-27T14:00:17.330Z,9.68
2023-02-27T14:01:52.582Z,9.70
2023-02-27T14:03:26.315Z,9.71
2023-02-27T14:04:58.587Z,9.72
2023-02-27T14:06:30.542Z,9.64
2023-02-27T14:08:09.505Z,9.65
2023-02-27T14:09:41.926Z,9.62
2023-02-27T14:11:20.995Z,9.64
2023-02-27T14:12:53.461Z,9.59
2023-02-27T14:14:54.562Z,9.60
2023-02-27T14:16:38.862Z,9.63
2023-02-27T14:18:34.097Z,9.58
2023-02-27T14:20:30.767Z,9.58
2023-02-27T14:22:04.313Z,9.60
2023-02-27T14:23:36.375Z,9.60
2023-02-27T14:25:17.080Z,9.63
2023-02-27T14:26:49.003Z,9.61
2023-02-27T14:28:23.766Z,9.66
2023-02-27T14:29:57.110Z,9.65
2023-02-27T14:31:35.395Z,9.67
2023-02-27T14:33:39.736Z,9.63
2023-02-27T14:35:12.551Z,9.63
2023-02-27T14:36:45.325Z,9.57
2023-02-27T14:38:17.495Z,9.58
2023-02-27T14:39:51.155Z,9.51
2023-02-27T14:41:22.965Z,9.41
2023-02-27T14:43:04.886Z,9.44
2023-02-27T14:44:38.129Z,9.38
2023-02-27T14:46:15.539Z,9.46
2023-02-27T14:47:47.528Z,9.45
2023-02-27T14:49:21.925Z,9.49
2023-02-27T14:52:31.302Z,9.59
2023-02-27T14:54:03.237Z,9.57
2023-02-27T14:55:35.735Z,9.61
2023-02-27T14:57:07.833Z,9.54
2023-02-27T14:58:39.749Z,9.56
2023-02-27T15:00:29.291Z,9.52
2023-02-27T15:02:07.470Z,9.49
2023-02-27T15:03:46.739Z,9.40
2023-02-27T15:05:20.240Z,9.44
2023-02-27T15:06:54.776Z,9.39
2023-02-27T15:08:31.454Z,9.41
2023-02-27T15:10:05.072Z,9.38
2023-02-27T15:11:41.086Z,9.28
2023-02-27T15:13:31.389Z,9.25
2023-02-27T15:15:03.757Z,9.20
2023-02-27T15:16:36.296Z,9.18
2023-02-27T15:18:12.712Z,9.21
2023-02-27T15:19:51.401Z,9.20
2023-02-27T15:21:24.961Z,9.11
2023-02-27T15:22:57.788Z,9.02
2023-02-27T15:24:35.267Z,9.03
2023-02-27T15:26:13.439Z,9.01
2023-02-27T15:27:45.297Z,8.92
2023-02-27T15:29:18.745Z,8.86
2023-02-27T15:30:54.396Z,8.81
2023-02-27T15:32:33.279Z,8.83
2023-02-27T15:34:05.227Z,8.81
2023-02-27T15:35:37.491Z,8.82
2023-02-27T15:37:09.365Z,8.71
2023-02-27T15:38:41.236Z,8.70
2023-02-27T15:40:15.512Z,8.66
2023-02-27T15:41:49.013Z,8.72
2023-02-27T15:43:21.004Z,8.70
2023-02-27T15:44:53.721Z,8.78
2023-02-27T15:46:26.256Z,8.80
2023-02-27T15:47:58.211Z,8.85
2023-02-27T15:49:30.113Z,8.89
2023-02-27T15:51:03.239Z,8.91
2023-02-27T15:52:47.107Z,8.95
2023-02-27T15:54:21.276Z,8.97
2023-02-27T15:55:57.092Z,8.95
2023-02-27T15:57:30.877Z,8.96
2023-02-27T15:59:02.785Z,8.86
2023-02-27T16:00:34.839Z,8.84
2023-02-27T16:02:07.157Z,8.83
2023-02-27T16:03:40.434Z,8.82
2023-02-27T16:05:15.948Z,8.83
2023-02-27T16:06:48.917Z,8.66
2023-02-27T16:08:20.780Z,8.57
2023-02-27T16:11:27.102Z,8.58
2023-02-27T16:12:58.983Z,8.58
2023-02-27T16:14:37.350Z,8.56
2023-02-27T16:16:20.977Z,8.49
2023-02-27T16:18:02.387Z,8.44
2023-02-27T16:19:34.449Z,8.40
2023-02-27T16:21:13.725Z,8.37
2023-02-27T16:23:01.355Z,8.23
2023-02-27T16:24:33.973Z,8.10
2023-02-27T16:26:21.333Z,8.09
2023-02-27T16:27:53.337Z,7.88
2023-02-27T16:29:36.104Z,7.91
2023-02-27T16:31:13.798Z,7.93
2023-02-27T16:32:45.780Z,7.91
2023-02-27T16:34:26.143Z,7.90
2023-02-27T16:36:06.072Z,7.89
2023-02-27T16:37:39.089Z,7.91
2023-02-27T16:39:13.813Z,7.90
2023-02-27T16:40:46.548Z,7.93
2023-02-27T16:42:18.520Z,7.94
2023-02-27T16:43:51.080Z,7.93
2023-02-27T16:45:24.542Z,7.89
2023-02-27T16:46:57.190Z,7.89
2023-02-27T16:48:29.102Z,7.88
2023-02-27T16:50:01.163Z,7.86
2023-02-27T16:51:37.649Z,7.84
2023-02-27T16:53:09.564Z,7.83
2023-02-27T16:54:42.521Z,7.80
2023-02-27T16:56:15.096Z,7.78
2023-02-27T16:57:47.012Z,7.74
2023-02-27T16:59:35.335Z,7.58
2023-02-27T17:01:07.314Z,7.60
2023-02-27T17:02:39.309Z,7.63
2023-02-27T17:04:25.276Z,7.66
2023-02-27T17:05:58.324Z,7.69
2023-02-27T17:07:30.936Z,7.70
2023-02-27T17:09:02.969Z,7.69
2023-02-27T17:10:35.189Z,7.69
2023-02-27T17:12:07.126Z,7.70
2023-02-27T17:13:39.089Z,7.71
2023-02-27T17:15:11.042Z,7.70
2023-02-27T17:16:43.054Z,7.71
2023-02-27T17:18:15.387Z,7.71
2023-02-27T17:19:47.282Z,7.69
2023-02-27T17:21:19.151Z,7.68
2023-02-27T17:22:51.023Z,7.66
2023-02-27T17:24:22.921Z,7.63
2023-02-27T17:25:56.129Z,7.63
2023-02-27T17:27:27.971Z,7.60
2023-02-27T17:29:00.176Z,7.58
2023-02-27T17:30:32.204Z,7.58
2023-02-27T17:32:04.401Z,7.57
2023-02-27T17:33:36.432Z,7.57
2023-02-27T17:35:09.284Z,7.54
2023-02-27T17:36:41.186Z,7.53
2023-02-27T17:38:13.143Z,7.56
2023-02-27T17:39:45.057Z,7.58
2023-02-27T17:41:17.210Z,7.60
2023-02-27T17:42:49.197Z,7.62
2023-02-27T17:44:21.189Z,7.63
2023-02-27T17:45:53.055Z,7.62
2023-02-27T17:47:24.960Z,7.61
2023-02-27T17:49:00.844Z,7.57
2023-02-27T17:50:32.707Z,7.57
2023-02-27T17:52:04.554Z,7.56
2023-02-27T17:53:36.620Z,7.54
2023-02-27T17:56:42.352Z,7.50
2023-02-27T17:58:14.363Z,7.46
2023-02-27T17:59:46.173Z,7.44
2023-02-27T18:01:21.798Z,7.40
2023-02-27T18:02:53.686Z,7.37
2023-02-27T18:04:25.702Z,7.37
2023-02-27T18:06:00.306Z,7.35
2023-02-27T18:07:32.509Z,7.32
2023-02-27T18:09:04.883Z,7.29
2023-02-27T18:10:37.226Z,7.25
2023-02-27T18:12:09.239Z,7.22
2023-02-27T18:13:41.394Z,7.21
2023-02-27T18:15:13.787Z,7.18
2023-02-27T18:16:45.720Z,7.15
2023-02-27T18:18:18.039Z,7.14
2023-02-27T18:19:49.942Z,7.13
2023-02-27T18:21:23.089Z,7.13
2023-02-27T18:22:54.963Z,7.12
2023-02-27T18:24:29.937Z,7.09
2023-02-27T18:26:01.897Z,7.07
2023-02-27T18:27:33.773Z,7.04
2023-02-27T18:29:10.431Z,7.05
2023-02-27T18:30:42.317Z,7.05
2023-02-27T18:32:14.267Z,7.05
2023-02-27T18:33:46.145Z,7.06
2023-02-27T18:35:18.098Z,7.06
2023-02-27T18:36:50.181Z,7.06
2023-02-27T18:38:22.211Z,7.09
2023-02-27T18:39:54.170Z,7.09
2023-02-27T18:41:26.392Z,7.10
2023-02-27T18:42:58.420Z,7.11
2023-02-27T18:44:30.324Z,7.12
2023-02-27T18:46:02.590Z,7.12
2023-02-27T18:47:34.485Z,7.12
2023-02-27T18:49:06.552Z,7.15
2023-02-27T18:50:38.447Z,7.16
2023-02-27T18:52:10.433Z,7.16
2023-02-27T18:53:44.572Z,7.15
2023-02-27T18:56:56.962Z,7.16
2023-02-27T18:58:28.914Z,7.18
2023-02-27T19:00:00.813Z,7.18
2023-02-27T19:01:34.015Z,7.18
2023-02-27T19:03:06.140Z,7.17
2023-02-27T19:04:38.074Z,7.15
2023-02-27T19:06:10.084Z,7.15
2023-02-27T19:07:42.816Z,7.15
2023-02-27T19:09:16.583Z,7.17
2023-02-27T19:10:48.511Z,7.19
2023-02-27T19:12:20.439Z,7.21
2023-02-27T19:13:52.795Z,7.22
2023-02-27T19:15:24.966Z,7.22
2023-02-27T19:17:00.679Z,7.20
2023-02-27T19:18:32.539Z,7.19
2023-02-27T19:20:06.653Z,7.19
2023-02-27T19:21:38.815Z,7.18
2023-02-27T19:23:10.839Z,7.17
2023-02-27T19:24:42.985Z,7.20
2023-02-27T19:26:15.612Z,7.22
2023-02-27T19:27:47.606Z,7.24
2023-02-27T19:29:19.615Z,7.23
2023-02-27T19:30:51.601Z,7.23
2023-02-27T19:32:23.772Z,7.23
2023-02-27T19:33:55.959Z,7.22
2023-02-27T19:35:27.829Z,7.22
2023-02-27T19:36:59.652Z,7.21
2023-02-27T19:38:31.530Z,7.21
2023-02-27T19:40:04.417Z,7.21
2023-02-27T19:41:36.235Z,7.21
2023-02-27T19:43:08.183Z,7.23
2023-02-27T19:44:40.856Z,7.25
2023-02-27T19:46:17.093Z,7.25
2023-02-27T19:47:49.040Z,7.24
2023-02-27T19:49:20.928Z,7.21
2023-02-27T19:50:52.836Z,7.18
2023-02-27T19:52:24.830Z,7.17
2023-02-27T19:53:57.168Z,7.19
2023-02-27T19:55:28.983Z,7.15
2023-02-27T19:57:00.885Z,7.03
2023-02-27T19:58:33.884Z,7.02
2023-02-27T20:00:09.255Z,7.01
2023-02-27T20:01:41.792Z,7.01
2023-02-27T20:03:16.380Z,7.01
2023-02-27T20:04:48.195Z,7.00
2023-02-27T20:06:21.322Z,6.99
2023-02-27T20:07:53.384Z,7.00
2023-02-27T20:09:26.056Z,7.00
2023-02-27T20:10:58.666Z,6.99
2023-02-27T20:12:30.574Z,6.94
2023-02-27T20:14:03.352Z,6.91
2023-02-27T20:15:36.128Z,6.87
2023-02-27T20:17:08.452Z,6.84
2023-02-27T20:18:41.739Z,6.83
2023-02-27T20:20:16.922Z,6.81
2023-02-27T20:21:49.197Z,6.79
2023-02-27T20:23:21.199Z,6.80
2023-02-27T20:24:55.820Z,6.81
2023-02-27T20:26:29.666Z,6.80
2023-02-27T20:28:01.739Z,6.79
2023-02-27T20:29:33.870Z,6.77
2023-02-27T20:31:10.075Z,6.75
2023-02-27T20:32:41.991Z,6.72
2023-02-27T20:34:16.165Z,6.68
2023-02-27T20:35:48.114Z,6.66
2023-02-27T20:37:20.067Z,6.64
2023-02-27T20:40:29.133Z,6.57
2023-02-27T20:42:01.115Z,6.57
2023-02-27T20:43:33.405Z,6.58
2023-02-27T20:45:05.698Z,6.62
2023-02-27T20:46:38.668Z,6.66
2023-02-27T20:48:10.545Z,6.67
2023-02-27T20:49:42.371Z,6.71
2023-02-27T20:51:21.651Z,6.74
2023-02-27T20:52:54.208Z,6.78
2023-02-27T20:54:26.073Z,6.77
2023-02-27T20:55:57.876Z,6.77
2023-02-27T20:57:30.013Z,6.79
2023-02-27T20:59:02.451Z,6.81
2023-02-27T21:00:34.268Z,6.84
2023-02-27T21:02:08.796Z,6.86
2023-02-27T21:03:41.289Z,6.86
2023-02-27T21:05:13.491Z,6.88
2023-02-27T21:06:46.653Z,6.88
2023-02-27T21:08:18.772Z,6.87
2023-02-27T21:09:51.074Z,6.88
2023-02-27T21:11:25.911Z,6.88
2023-02-27T21:12:58.115Z,6.89
2023-02-27T21:14:29.915Z,6.88
2023-02-27T21:16:01.836Z,6.90
2023-02-27T21:17:33.756Z,6.92
2023-02-27T21:19:05.666Z,6.93
2023-02-27T21:20:39.455Z,6.92
2023-02-27T21:22:11.531Z,6.94
2023-02-27T21:23:43.877Z,6.94
2023-02-27T21:25:15.995Z,6.93
2023-02-27T21:26:48.094Z,6.93
2023-02-27T21:28:20.058Z,6.93
2023-02-27T21:29:51.911Z,6.93
2023-02-27T21:31:24.623Z,6.93
2023-02-27T21:32:57.157Z,6.93
2023-02-27T21:34:29.124Z,6.95
2023-02-27T21:36:01.010Z,6.94
2023-02-27T21:37:33.113Z,6.92
2023-02-27T21:39:06.458Z,6.89
2023-02-27T21:40:38.308Z,6.88
2023-02-27T21:42:10.145Z,6.87
2023-02-27T21:43:42.167Z,6.84
2023-02-27T21:45:14.122Z,6.84
2023-02-27T21:46:46.314Z,6.86
2023-02-27T21:48:18.453Z,6.88
2023-02-27T21:49:51.705Z,6.90
2023-02-27T21:51:38.265Z,6.83
2023-02-27T21:53:11.461Z,6.79
2023-02-27T21:54:43.384Z,6.73
2023-02-27T21:56:15.302Z,6.74
2023-02-27T21:57:47.232Z,6.75
2023-02-27T21:59:19.610Z,6.77
2023-02-27T22:00:51.565Z,6.76
2023-02-27T22:02:23.518Z,6.76
2023-02-27T22:03:55.341Z,6.69
2023-02-27T22:05:27.396Z,6.73
2023-02-27T22:06:59.252Z,6.73
2023-02-27T22:08:31.118Z,6.71
2023-02-27T22:10:03.036Z,6.67
2023-02-27T22:11:35.388Z,6.71
2023-02-27T22:13:07.282Z,6.67
2023-02-27T22:14:39.850Z,6.72
2023-02-27T22:16:12.157Z,6.75
2023-02-27T22:17:44.110Z,6.80
2023-02-27T22:19:20.160Z,6.85